createdAt,value
2022-11-24T00:00:36.789Z,84.58
2022-11-24T00:01:38.541Z,84.97
2022-11-24T00:02:40.061Z,84.48
2022-11-24T00:03:42.060Z,84.87
2022-11-24T00:04:43.505Z,84.41
2022-11-24T00:05:44.981Z,83.86
2022-11-24T00:06:46.970Z,84.11
2022-11-24T00:07:48.457Z,83.87
2022-11-24T00:08:50.294Z,83.83
2022-11-24T00:09:51.730Z,83.67
2022-11-24T00:10:53.128Z,84.06
2022-11-24T00:11:54.892Z,83.13
2022-11-24T00:12:56.328Z,83.44
2022-11-24T00:13:58.593Z,82.97
2022-11-24T00:15:00.064Z,83.73
2022-11-24T00:16:23.333Z,83.92
2022-11-24T00:17:25.044Z,83.26
2022-11-24T00:18:27.329Z,84.14
2022-11-24T00:19:28.773Z,83.84
2022-11-24T00:20:30.272Z,84.08
2022-11-24T00:21:33.080Z,84.43
2022-11-24T00:22:34.487Z,84.29
2022-11-24T00:23:36.414Z,84.46
2022-11-24T00:24:37.966Z,84.58
2022-11-24T00:25:39.369Z,84.69
2022-11-24T00:26:41.176Z,84.48
2022-11-24T00:27:42.620Z,84.55
2022-11-24T00:28:45.570Z,84.25
2022-11-24T00:29:46.979Z,84.30
2022-11-24T00:30:48.508Z,84.41
2022-11-24T00:31:50.362Z,84.17
2022-11-24T00:32:52.989Z,83.90
2022-11-24T00:33:57.958Z,84.57
2022-11-24T00:34:59.393Z,84.34
2022-11-24T00:36:01.109Z,84.40
2022-11-24T00:37:02.869Z,84.35
2022-11-24T00:38:04.284Z,84.61
2022-11-24T00:39:11.916Z,84.42
2022-11-24T00:40:13.335Z,84.38
2022-11-24T00:41:15.166Z,84.44
2022-11-24T00:42:17.057Z,84.84
2022-11-24T00:43:19.390Z,84.70
2022-11-24T00:44:20.946Z,84.76
2022-11-24T00:45:22.366Z,84.94
2022-11-24T00:46:25.345Z,84.87
2022-11-24T00:47:37.857Z,84.74
2022-11-24T00:48:39.348Z,84.81
2022-11-24T00:49:40.761Z,85.24
2022-11-24T00:50:42.410Z,85.24
2022-11-24T00:51:44.248Z,85.18
2022-11-24T00:52:45.730Z,85.18
2022-11-24T00:53:47.373Z,85.65
2022-11-24T00:54:48.858Z,85.46
2022-11-24T00:55:51.963Z,85.14
2022-11-24T00:56:53.732Z,85.21
2022-11-24T00:57:55.214Z,85.66
2022-11-24T00:58:56.654Z,85.86
2022-11-24T00:59:58.066Z,85.92
2022-11-24T01:01:09.076Z,85.96
2022-11-24T01:02:10.706Z,85.78
2022-11-24T01:03:15.892Z,86.34
2022-11-24T01:04:18.003Z,85.39
2022-11-24T01:05:19.431Z,85.79
2022-11-24T01:06:24.306Z,85.50
2022-11-24T01:07:25.758Z,85.15
2022-11-24T01:08:27.229Z,85.28
2022-11-24T01:09:28.704Z,85.03
2022-11-24T01:10:30.385Z,85.91
2022-11-24T01:11:54.849Z,85.81
2022-11-24T01:12:56.343Z,86.14
2022-11-24T01:13:59.429Z,85.84
2022-11-24T01:15:00.864Z,85.63
2022-11-24T01:16:02.384Z,85.57
2022-11-24T01:17:04.502Z,85.49
2022-11-24T01:18:06.364Z,85.51
2022-11-24T01:19:07.804Z,85.26
2022-11-24T01:20:09.905Z,85.57
2022-11-24T01:21:12.167Z,85.38
2022-11-24T01:22:13.748Z,85.65
2022-11-24T01:23:15.212Z,85.51
2022-11-24T01:24:16.949Z,85.12
2022-11-24T01:25:18.416Z,85.23
2022-11-24T01:26:21.829Z,85.26
2022-11-24T01:27:23.237Z,85.09
2022-11-24T01:28:24.643Z,84.90
2022-11-24T01:29:26.148Z,84.73
2022-11-24T01:30:27.544Z,84.65
2022-11-24T01:31:29.430Z,84.96
2022-11-24T01:32:33.174Z,84.33
2022-11-24T01:33:36.137Z,84.30
2022-11-24T01:34:37.534Z,84.38
2022-11-24T01:35:38.934Z,84.85
2022-11-24T01:36:40.680Z,84.24
2022-11-24T01:37:42.118Z,84.38
2022-11-24T01:38:43.827Z,83.99
2022-11-24T01:39:45.245Z,83.74
2022-11-24T01:40:47.033Z,83.95
2022-11-24T01:41:48.485Z,83.78
2022-11-24T01:42:52.326Z,83.78
2022-11-24T01:43:55.515Z,84.27
2022-11-24T01:45:30.568Z,82.99
2022-11-24T01:46:42.512Z,83.67
2022-11-24T01:47:44.376Z,83.58
2022-11-24T01:48:52.167Z,83.38
2022-11-24T01:49:57.311Z,83.39
2022-11-24T01:51:08.352Z,83.87
2022-11-24T01:52:33.074Z,83.25
2022-11-24T01:53:35.666Z,83.41
2022-11-24T01:54:41.756Z,83.26
2022-11-24T01:55:43.589Z,83.41
2022-11-24T01:56:48.689Z,84.14
2022-11-24T01:58:19.142Z,84.04
2022-11-24T01:59:21.755Z,83.40
2022-11-24T02:00:23.318Z,83.72
2022-11-24T02:01:25.523Z,83.62
2022-11-24T02:02:29.753Z,83.16
2022-11-24T02:03:35.635Z,83.69
2022-11-24T02:04:37.791Z,83.78
2022-11-24T02:05:44.833Z,83.28
2022-11-24T02:06:48.115Z,83.30
2022-11-24T02:07:50.295Z,83.27
2022-11-24T02:09:11.614Z,83.53
2022-11-24T02:10:16.460Z,83.67
2022-11-24T02:11:19.792Z,83.03
2022-11-24T02:12:27.266Z,83.68
2022-11-24T02:13:28.733Z,83.75
2022-11-24T02:14:30.317Z,83.44
2022-11-24T02:15:32.207Z,84.06
2022-11-24T02:16:37.276Z,84.00
2022-11-24T02:17:38.649Z,83.61
2022-11-24T02:18:41.902Z,83.64
2022-11-24T02:19:53.592Z,83.47
2022-11-24T02:20:55.926Z,83.35
2022-11-24T02:21:57.790Z,83.69
2022-11-24T02:23:11.119Z,83.32
2022-11-24T02:24:25.182Z,83.33
2022-11-24T02:25:39.549Z,83.42
2022-11-24T02:26:45.937Z,83.31
2022-11-24T02:27:53.559Z,83.72
2022-11-24T02:28:55.870Z,83.51
2022-11-24T02:29:57.340Z,83.30
2022-11-24T02:31:00.440Z,83.61
2022-11-24T02:32:04.998Z,83.63
2022-11-24T02:33:06.627Z,83.30
2022-11-24T02:34:08.022Z,83.70
2022-11-24T02:35:10.997Z,83.50
2022-11-24T02:36:12.593Z,83.30
2022-11-24T02:37:14.024Z,83.48
2022-11-24T02:38:15.396Z,83.68
2022-11-24T02:39:16.991Z,83.46
2022-11-24T02:40:25.451Z,83.26
2022-11-24T02:41:29.075Z,83.92
2022-11-24T02:42:35.982Z,83.62
2022-11-24T02:43:42.724Z,84.09
2022-11-24T02:44:49.310Z,84.36
2022-11-24T02:45:50.815Z,83.93
2022-11-24T02:47:06.042Z,83.52
2022-11-24T02:48:07.844Z,83.89
2022-11-24T02:49:09.263Z,83.99
2022-11-24T02:50:10.714Z,83.57
2022-11-24T02:51:12.650Z,83.95
2022-11-24T02:52:14.164Z,83.85
2022-11-24T02:53:15.607Z,83.62
2022-11-24T02:54:17.039Z,83.92
2022-11-24T02:55:18.552Z,83.89
2022-11-24T02:56:20.297Z,83.63
2022-11-24T02:57:23.265Z,84.13
2022-11-24T02:58:24.655Z,84.19
2022-11-24T02:59:26.105Z,83.52
2022-11-24T03:00:27.508Z,84.00
2022-11-24T03:01:29.286Z,84.42
2022-11-24T03:02:30.795Z,84.28
2022-11-24T03:03:32.258Z,84.04
2022-11-24T03:04:34.018Z,83.89
2022-11-24T03:05:35.729Z,84.32
2022-11-24T03:06:38.311Z,83.65
2022-11-24T03:07:39.827Z,83.80
2022-11-24T03:08:41.314Z,83.57
2022-11-24T03:09:42.744Z,84.37
2022-11-24T03:10:44.481Z,84.11
2022-11-24T03:11:46.477Z,84.13
2022-11-24T03:12:47.888Z,84.34
2022-11-24T03:13:49.812Z,83.63
2022-11-24T03:14:51.829Z,83.59
2022-11-24T03:15:53.332Z,84.47
2022-11-24T03:16:55.121Z,83.86
2022-11-24T03:17:56.947Z,83.27
2022-11-24T03:18:59.089Z,83.89
2022-11-24T03:20:04.783Z,84.24
2022-11-24T03:21:07.119Z,83.56
2022-11-24T03:22:08.875Z,84.31
2022-11-24T03:23:10.569Z,83.87
2022-11-24T03:24:11.993Z,84.08
2022-11-24T03:25:13.402Z,84.17
2022-11-24T03:26:18.750Z,84.04
2022-11-24T03:27:21.260Z,83.75
2022-11-24T03:28:22.693Z,84.26
2022-11-24T03:29:24.113Z,84.16
2022-11-24T03:30:26.072Z,83.77
2022-11-24T03:31:27.722Z,83.68
2022-11-24T03:32:29.598Z,83.23
2022-11-24T03:33:31.055Z,84.26
2022-11-24T03:34:32.894Z,84.42
2022-11-24T03:35:34.519Z,84.16
2022-11-24T03:36:35.917Z,83.71
2022-11-24T03:37:37.795Z,84.17
2022-11-24T03:38:39.234Z,84.11
2022-11-24T03:39:40.642Z,84.53
2022-11-24T03:40:42.052Z,84.07
2022-11-24T03:41:43.522Z,84.16
2022-11-24T03:42:45.673Z,83.93
2022-11-24T03:43:47.145Z,83.48
2022-11-24T03:44:48.672Z,83.91
2022-11-24T03:45:51.102Z,84.17
2022-11-24T03:46:52.495Z,83.94
2022-11-24T03:47:54.225Z,83.88
2022-11-24T03:48:55.645Z,83.97
2022-11-24T03:49:57.065Z,83.88
2022-11-24T03:51:01.243Z,84.08
2022-11-24T03:52:07.803Z,84.24
2022-11-24T03:53:10.386Z,84.20
2022-11-24T03:54:11.963Z,84.21
2022-11-24T03:55:13.444Z,84.08
2022-11-24T03:56:14.990Z,84.09
2022-11-24T03:57:16.424Z,83.48
2022-11-24T03:58:18.263Z,83.52
2022-11-24T03:59:19.772Z,83.96
2022-11-24T04:00:21.433Z,83.62
2022-11-24T04:01:23.005Z,84.25
2022-11-24T04:02:24.497Z,84.16
2022-11-24T04:03:26.896Z,83.92
2022-11-24T04:04:28.293Z,83.69
2022-11-24T04:05:29.871Z,84.33
2022-11-24T04:06:31.514Z,83.70
2022-11-24T04:07:33.201Z,83.42
2022-11-24T04:08:35.027Z,83.95
2022-11-24T04:09:36.420Z,84.40
2022-11-24T04:10:39.000Z,84.04
2022-11-24T04:11:58.897Z,84.07
2022-11-24T04:13:00.302Z,84.32
2022-11-24T04:14:01.722Z,83.64
2022-11-24T04:15:03.328Z,83.39
2022-11-24T04:16:08.235Z,83.90
2022-11-24T04:17:09.680Z,84.25
2022-11-24T04:18:13.125Z,84.10
2022-11-24T04:19:14.846Z,83.89
2022-11-24T04:20:17.338Z,84.32
2022-11-24T04:21:19.227Z,84.00
2022-11-24T04:22:20.611Z,84.29
2022-11-24T04:23:22.528Z,84.27
2022-11-24T04:24:24.052Z,84.00
2022-11-24T04:25:25.526Z,83.94
2022-11-24T04:26:26.956Z,84.22
2022-11-24T04:27:28.668Z,84.32
2022-11-24T04:28:30.399Z,84.11
2022-11-24T04:29:31.891Z,84.05
2022-11-24T04:30:33.514Z,84.33
2022-11-24T04:31:34.991Z,83.95
2022-11-24T04:32:37.041Z,83.98
2022-11-24T04:33:38.803Z,83.91
2022-11-24T04:34:40.268Z,84.32
2022-11-24T04:35:41.706Z,84.06
2022-11-24T04:36:43.122Z,84.24
2022-11-24T04:37:44.605Z,83.54
2022-11-24T04:39:19.404Z,83.68
2022-11-24T04:40:09.908Z,83.57
2022-11-24T04:41:11.384Z,83.80
2022-11-24T04:42:13.113Z,83.55
2022-11-24T04:43:16.155Z,84.18
2022-11-24T04:44:17.884Z,84.58
2022-11-24T04:45:19.282Z,84.08
2022-11-24T04:46:20.760Z,83.77
2022-11-24T04:47:23.955Z,83.57
2022-11-24T04:48:25.386Z,84.03
2022-11-24T04:49:27.417Z,83.77
2022-11-24T04:50:28.860Z,84.22
2022-11-24T04:51:30.264Z,83.99
2022-11-24T04:52:31.672Z,84.13
2022-11-24T04:53:33.113Z,83.88
2022-11-24T04:54:35.110Z,83.52
2022-11-24T04:55:38.808Z,83.64
2022-11-24T04:56:41.502Z,83.66
2022-11-24T04:57:42.947Z,83.53
2022-11-24T04:58:44.402Z,83.38
2022-11-24T04:59:46.271Z,82.90
2022-11-24T05:00:47.710Z,83.39
2022-11-24T05:01:49.169Z,83.30
2022-11-24T05:02:50.621Z,83.05
2022-11-24T05:03:56.011Z,83.49
2022-11-24T05:04:57.457Z,83.37
2022-11-24T05:05:59.737Z,83.78
2022-11-24T05:07:01.197Z,83.52
2022-11-24T05:08:03.070Z,83.21
2022-11-24T05:09:05.643Z,83.30
2022-11-24T05:10:26.586Z,82.87
2022-11-24T05:11:28.085Z,82.98
2022-11-24T05:12:31.232Z,83.10
2022-11-24T05:13:33.220Z,83.50
2022-11-24T05:14:35.108Z,83.24
2022-11-24T05:15:38.236Z,82.88
2022-11-24T05:16:39.616Z,82.70
2022-11-24T05:17:41.322Z,83.35
2022-11-24T05:18:42.776Z,83.08
2022-11-24T05:19:44.616Z,83.10
2022-11-24T05:20:46.136Z,83.02
2022-11-24T05:21:47.548Z,82.76
2022-11-24T05:22:49.386Z,83.26
2022-11-24T05:23:50.818Z,82.83
2022-11-24T05:24:52.296Z,83.35
2022-11-24T05:25:53.861Z,82.27
2022-11-24T05:26:55.296Z,83.11
2022-11-24T05:28:03.964Z,83.50
2022-11-24T05:29:05.394Z,82.92
2022-11-24T05:30:07.823Z,82.98
2022-11-24T05:31:09.310Z,82.66
2022-11-24T05:32:10.890Z,82.65
2022-11-24T05:33:19.245Z,81.67
2022-11-24T05:34:21.409Z,82.00
2022-11-24T05:35:23.405Z,82.17
2022-11-24T05:36:43.233Z,81.78
2022-11-24T05:37:45.133Z,81.62
2022-11-24T05:38:46.598Z,82.13
2022-11-24T05:39:48.562Z,82.18
2022-11-24T05:40:49.974Z,82.15
2022-11-24T05:41:51.573Z,81.94
2022-11-24T05:42:53.008Z,81.54
2022-11-24T05:43:54.475Z,81.59
2022-11-24T05:44:56.244Z,81.46
2022-11-24T05:46:01.570Z,81.33
2022-11-24T05:47:03.066Z,81.34
2022-11-24T05:48:06.443Z,81.40
2022-11-24T05:49:07.886Z,80.83
2022-11-24T05:50:11.651Z,81.47
2022-11-24T05:51:13.157Z,80.98
2022-11-24T05:52:15.150Z,81.61
2022-11-24T05:53:16.590Z,81.34
2022-11-24T05:54:18.336Z,81.39
2022-11-24T05:55:19.947Z,81.38
2022-11-24T05:56:21.383Z,80.95
2022-11-24T05:57:22.955Z,81.33
2022-11-24T05:58:24.393Z,81.54
2022-11-24T05:59:26.144Z,80.70
2022-11-24T06:00:28.870Z,81.43
2022-11-24T06:01:30.334Z,81.23
2022-11-24T06:02:31.932Z,81.10
2022-11-24T06:03:33.674Z,81.50
2022-11-24T06:04:35.574Z,81.44
2022-11-24T06:05:37.326Z,81.60
2022-11-24T06:06:38.819Z,81.48
2022-11-24T06:07:40.513Z,81.82
2022-11-24T06:08:41.949Z,81.65
2022-11-24T06:09:43.630Z,81.09
2022-11-24T06:10:45.035Z,81.27
2022-11-24T06:11:47.701Z,81.77
2022-11-24T06:12:49.243Z,81.99
2022-11-24T06:13:50.733Z,81.38
2022-11-24T06:14:52.687Z,82.01
2022-11-24T06:15:54.284Z,81.91
2022-11-24T06:16:55.842Z,81.78
2022-11-24T06:17:57.309Z,82.26
2022-11-24T06:18:59.989Z,81.82
2022-11-24T06:20:01.815Z,81.45
2022-11-24T06:21:10.905Z,81.66
2022-11-24T06:22:13.272Z,81.95
2022-11-24T06:23:14.701Z,81.92
2022-11-24T06:24:16.651Z,81.98
2022-11-24T06:25:18.301Z,81.78
2022-11-24T06:26:19.944Z,81.98
2022-11-24T06:27:21.421Z,81.88
2022-11-24T06:28:22.878Z,82.48
2022-11-24T06:29:24.683Z,82.28
2022-11-24T06:30:26.120Z,82.72
2022-11-24T06:31:27.641Z,82.41
2022-11-24T06:32:29.263Z,82.91
2022-11-24T06:33:35.359Z,83.04
2022-11-24T06:34:37.347Z,82.91
2022-11-24T06:35:38.951Z,82.61
2022-11-24T06:36:40.454Z,83.15
2022-11-24T06:37:41.903Z,82.60
2022-11-24T06:38:43.616Z,83.03
2022-11-24T06:39:45.429Z,82.64
2022-11-24T06:40:46.847Z,82.90
2022-11-24T06:41:50.224Z,82.65
2022-11-24T06:42:52.870Z,82.95
2022-11-24T06:43:54.529Z,83.08
2022-11-24T06:44:56.320Z,82.61
2022-11-24T06:45:58.157Z,82.09
2022-11-24T06:46:59.621Z,82.22
2022-11-24T06:48:01.125Z,82.80
2022-11-24T06:49:03.039Z,82.95
2022-11-24T06:50:05.002Z,82.91
2022-11-24T06:51:10.434Z,82.93
2022-11-24T06:52:12.047Z,82.19
2022-11-24T06:53:13.640Z,82.68
2022-11-24T06:54:17.130Z,82.85
2022-11-24T06:55:18.621Z,82.63
2022-11-24T06:56:21.281Z,83.00
2022-11-24T06:57:22.711Z,83.45
2022-11-24T06:58:24.317Z,83.02
2022-11-24T06:59:26.550Z,83.51
2022-11-24T07:00:29.395Z,82.61
2022-11-24T07:01:31.107Z,83.09
2022-11-24T07:02:32.723Z,83.37
2022-11-24T07:03:34.301Z,83.20
2022-11-24T07:04:36.004Z,82.76
2022-11-24T07:05:37.757Z,83.51
2022-11-24T07:06:41.870Z,83.09
2022-11-24T07:07:43.337Z,83.09
2022-11-24T07:08:45.523Z,82.64
2022-11-24T07:09:46.961Z,82.86
2022-11-24T07:10:48.364Z,83.36
2022-11-24T07:11:49.771Z,82.63
2022-11-24T07:12:51.227Z,82.66
2022-11-24T07:13:58.181Z,83.03
2022-11-24T07:15:01.733Z,83.06
2022-11-24T07:16:13.258Z,82.57
2022-11-24T07:17:14.700Z,83.21
2022-11-24T07:18:16.140Z,83.51
2022-11-24T07:19:23.098Z,82.96
2022-11-24T07:20:26.370Z,82.51
2022-11-24T07:21:29.136Z,82.38
2022-11-24T07:22:30.589Z,82.42
2022-11-24T07:23:32.051Z,82.79
2022-11-24T07:24:33.772Z,82.09
2022-11-24T07:25:35.502Z,82.72
2022-11-24T07:26:37.488Z,82.24
2022-11-24T07:27:39.165Z,82.18
2022-11-24T07:28:40.611Z,81.86
2022-11-24T07:29:42.438Z,82.71
2022-11-24T07:30:43.854Z,81.85
2022-11-24T07:31:46.056Z,82.58
2022-11-24T07:32:47.573Z,81.83
2022-11-24T07:33:50.286Z,82.59
2022-11-24T07:34:52.035Z,81.70
2022-11-24T07:35:53.754Z,82.00
2022-11-24T07:36:55.206Z,82.23
2022-11-24T07:37:57.507Z,81.73
2022-11-24T07:38:59.288Z,82.03
2022-11-24T07:40:00.696Z,82.00
2022-11-24T07:41:04.360Z,82.11
2022-11-24T07:42:06.753Z,81.81
2022-11-24T07:43:08.161Z,81.56
2022-11-24T07:44:09.599Z,81.88
2022-11-24T07:45:11.076Z,81.67
2022-11-24T07:46:14.832Z,81.72
2022-11-24T07:47:16.274Z,81.13
2022-11-24T07:48:17.669Z,81.29
2022-11-24T07:49:19.762Z,81.18
2022-11-24T07:50:21.189Z,81.57
2022-11-24T07:51:22.649Z,81.48
2022-11-24T07:52:26.620Z,81.01
2022-11-24T07:53:29.085Z,81.39
2022-11-24T07:54:31.432Z,81.33
2022-11-24T07:55:33.050Z,80.93
2022-11-24T07:56:34.518Z,81.89
2022-11-24T07:57:36.194Z,81.16
2022-11-24T07:58:38.107Z,81.12
2022-11-24T07:59:39.567Z,81.28
2022-11-24T08:00:40.974Z,81.90
2022-11-24T08:01:42.474Z,80.77
2022-11-24T08:02:44.652Z,81.55
2022-11-24T08:03:46.215Z,81.67
2022-11-24T08:04:47.759Z,81.64
2022-11-24T08:06:22.253Z,81.99
2022-11-24T08:07:17.876Z,81.69
2022-11-24T08:08:19.363Z,81.97
2022-11-24T08:09:20.889Z,81.75
2022-11-24T08:10:22.314Z,81.65
2022-11-24T08:11:24.146Z,81.42
2022-11-24T08:12:25.716Z,81.88
2022-11-24T08:13:27.133Z,81.59
2022-11-24T08:14:28.882Z,80.44
2022-11-24T08:15:30.294Z,80.86
2022-11-24T08:16:32.286Z,80.31
2022-11-24T08:17:33.743Z,80.28
2022-11-24T08:18:36.722Z,79.67
2022-11-24T08:19:38.071Z,79.81
2022-11-24T08:20:39.398Z,80.38
2022-11-24T08:21:40.802Z,80.38
2022-11-24T08:22:42.609Z,80.62
2022-11-24T08:23:44.532Z,80.57
2022-11-24T08:24:49.203Z,81.00
2022-11-24T08:25:55.602Z,80.74
2022-11-24T08:26:58.340Z,80.41
2022-11-24T08:28:01.188Z,79.93
2022-11-24T08:29:02.660Z,79.79
2022-11-24T08:30:04.522Z,80.24
2022-11-24T08:31:08.371Z,79.94
2022-11-24T08:32:11.154Z,79.61
2022-11-24T08:33:12.853Z,79.19
2022-11-24T08:34:14.601Z,79.11
2022-11-24T08:35:16.077Z,78.50
2022-11-24T08:36:19.209Z,77.66
2022-11-24T08:37:20.797Z,77.22
2022-11-24T08:38:22.230Z,77.93
2022-11-24T08:39:23.735Z,77.93
2022-11-24T08:40:25.151Z,79.00
2022-11-24T08:41:27.489Z,78.82
2022-11-24T08:42:28.949Z,78.82
2022-11-24T08:43:30.631Z,77.50
2022-11-24T08:44:32.707Z,78.06
2022-11-24T08:45:38.268Z,77.58
2022-11-24T08:46:42.952Z,76.77
2022-11-24T08:47:44.479Z,77.71
2022-11-24T08:48:52.371Z,76.88
2022-11-24T08:49:53.779Z,77.02
2022-11-24T08:50:55.716Z,77.08
2022-11-24T08:51:57.919Z,77.15
2022-11-24T08:52:59.382Z,78.03
2022-11-24T08:54:01.873Z,78.16
2022-11-24T08:55:03.516Z,77.39
2022-11-24T08:56:06.204Z,77.28
2022-11-24T08:57:07.627Z,77.36
2022-11-24T08:58:09.090Z,76.51
2022-11-24T08:59:14.964Z,76.07
2022-11-24T09:00:22.328Z,76.44
2022-11-24T09:01:24.527Z,75.86
2022-11-24T09:02:26.012Z,75.95
2022-11-24T09:03:27.433Z,76.43
2022-11-24T09:04:29.261Z,75.80
2022-11-24T09:05:59.151Z,75.71
2022-11-24T09:06:52.031Z,75.28
2022-11-24T09:07:53.464Z,75.21
2022-11-24T09:08:55.568Z,75.04
2022-11-24T09:09:57.225Z,75.08
2022-11-24T09:11:07.546Z,75.76
2022-11-24T09:12:14.294Z,75.87
2022-11-24T09:13:16.178Z,76.25
2022-11-24T09:14:18.023Z,76.00
2022-11-24T09:15:20.351Z,75.81
2022-11-24T09:16:28.883Z,75.54
2022-11-24T09:17:30.552Z,74.91
2022-11-24T09:18:33.339Z,75.59
2022-11-24T09:19:35.479Z,75.54
2022-11-24T09:20:37.178Z,76.42
2022-11-24T09:21:39.069Z,76.69
2022-11-24T09:22:41.720Z,76.20
2022-11-24T09:23:44.455Z,76.33
2022-11-24T09:24:45.866Z,76.64
2022-11-24T09:25:47.672Z,76.49
2022-11-24T09:26:49.099Z,76.96
2022-11-24T09:27:51.148Z,76.92
2022-11-24T09:28:54.838Z,77.22
2022-11-24T09:29:56.271Z,77.22
2022-11-24T09:31:01.927Z,77.90
2022-11-24T09:32:06.732Z,77.67
2022-11-24T09:33:08.651Z,77.51
2022-11-24T09:34:13.605Z,77.06
2022-11-24T09:35:15.050Z,77.70
2022-11-24T09:36:16.698Z,78.38
2022-11-24T09:37:18.509Z,78.34
2022-11-24T09:38:20.218Z,78.35
2022-11-24T09:39:21.774Z,78.36
2022-11-24T09:40:23.235Z,78.38
2022-11-24T09:41:46.223Z,77.80
2022-11-24T09:43:17.835Z,78.25
2022-11-24T09:44:49.600Z,77.72
2022-11-24T09:46:20.024Z,78.40
2022-11-24T09:47:46.395Z,78.77
2022-11-24T09:48:51.317Z,78.69
2022-11-24T09:49:55.535Z,78.53
2022-11-24T09:51:01.503Z,78.63
2022-11-24T09:52:09.491Z,78.44
2022-11-24T09:53:31.324Z,78.99
2022-11-24T09:54:34.913Z,78.82
2022-11-24T09:55:42.481Z,79.38
2022-11-24T09:56:45.472Z,78.59
2022-11-24T09:57:49.144Z,78.15
2022-11-24T09:58:55.665Z,79.07
2022-11-24T10:00:01.993Z,78.65
2022-11-24T10:01:35.681Z,78.56
2022-11-24T10:02:37.184Z,78.58
2022-11-24T10:03:43.505Z,78.33
2022-11-24T10:04:47.486Z,78.55
2022-11-24T10:05:51.342Z,77.83
2022-11-24T10:07:09.337Z,77.92
2022-11-24T10:08:34.506Z,77.71
2022-11-24T10:09:57.642Z,79.07
2022-11-24T10:11:11.392Z,78.98
2022-11-24T10:12:33.921Z,78.77
2022-11-24T10:14:04.276Z,79.31
2022-11-24T10:15:25.651Z,79.04
2022-11-24T10:16:39.024Z,79.67
2022-11-24T10:17:45.564Z,80.02
2022-11-24T10:19:14.750Z,80.25
2022-11-24T10:20:26.663Z,80.39
2022-11-24T10:21:44.944Z,80.90
2022-11-24T10:23:01.387Z,81.28
2022-11-24T10:24:34.439Z,81.39
2022-11-24T10:25:47.477Z,81.80
2022-11-24T10:27:00.644Z,81.55
2022-11-24T10:28:04.901Z,82.46
2022-11-24T10:29:15.571Z,82.20
2022-11-24T10:30:23.830Z,82.73
2022-11-24T10:31:42.520Z,82.41
2022-11-24T10:32:47.368Z,81.87
2022-11-24T10:33:49.372Z,82.25
2022-11-24T10:34:51.160Z,82.83
2022-11-24T10:35:56.971Z,82.36
2022-11-24T10:37:08.250Z,82.72
2022-11-24T10:38:21.820Z,82.95
2022-11-24T10:39:39.037Z,83.00
2022-11-24T10:40:57.042Z,83.09
2022-11-24T10:42:07.559Z,82.55
2022-11-24T10:43:12.465Z,83.48
2022-11-24T10:44:15.130Z,83.31
2022-11-24T10:45:20.188Z,83.32
2022-11-24T10:46:27.463Z,83.58
2022-11-24T10:47:30.717Z,83.30
2022-11-24T10:48:41.069Z,83.27
2022-11-24T10:49:51.199Z,83.42
2022-11-24T10:50:56.700Z,83.61
2022-11-24T10:52:07.097Z,83.83
2022-11-24T10:53:08.541Z,83.37
2022-11-24T10:54:20.355Z,83.39
2022-11-24T10:55:22.135Z,83.85
2022-11-24T10:56:23.585Z,83.89
2022-11-24T10:57:29.006Z,83.82
2022-11-24T10:58:36.050Z,83.58
2022-11-24T10:59:40.303Z,84.32
2022-11-24T11:00:41.807Z,83.77
2022-11-24T11:01:43.301Z,84.70
2022-11-24T11:02:45.762Z,84.86
2022-11-24T11:03:56.300Z,84.17
2022-11-24T11:04:58.594Z,84.51
2022-11-24T11:06:11.754Z,84.61
2022-11-24T11:07:25.377Z,84.21
2022-11-24T11:08:34.971Z,84.74
2022-11-24T11:09:37.041Z,84.60
2022-11-24T11:10:38.705Z,85.33
2022-11-24T11:11:40.226Z,85.95
2022-11-24T11:12:44.400Z,85.74
2022-11-24T11:14:01.718Z,85.81
2022-11-24T11:15:23.207Z,85.61
2022-11-24T11:16:41.435Z,85.12
2022-11-24T11:17:44.775Z,85.81
2022-11-24T11:18:49.336Z,85.10
2022-11-24T11:19:58.447Z,85.73
2022-11-24T11:21:03.787Z,86.26
2022-11-24T11:22:11.286Z,85.82
2022-11-24T11:23:22.891Z,85.99
2022-11-24T11:24:24.438Z,85.50
2022-11-24T11:25:34.550Z,85.72
2022-11-24T11:26:38.204Z,85.63
2022-11-24T11:27:41.124Z,86.01
2022-11-24T11:28:56.562Z,85.91
2022-11-24T11:31:41.154Z,85.17
2022-11-24T11:34:28.470Z,85.67
2022-11-24T11:35:36.522Z,86.12
2022-11-24T11:36:46.777Z,86.03
2022-11-24T11:37:49.585Z,86.37
2022-11-24T11:38:51.158Z,86.25
2022-11-24T11:39:55.108Z,85.87
2022-11-24T11:40:56.941Z,85.12
2022-11-24T11:42:37.901Z,84.74
2022-11-24T11:43:41.020Z,84.07
2022-11-24T11:44:57.923Z,83.85
2022-11-24T11:46:05.105Z,84.09
2022-11-24T11:47:26.215Z,83.77
2022-11-24T11:48:43.366Z,82.97
2022-11-24T11:49:48.359Z,83.19
2022-11-24T11:52:40.243Z,83.23
2022-11-24T11:53:51.131Z,82.41
2022-11-24T11:55:05.315Z,82.45
2022-11-24T11:56:25.029Z,81.76
2022-11-24T11:57:40.538Z,81.44
2022-11-24T11:59:10.042Z,81.64
2022-11-24T12:00:22.033Z,81.51
2022-11-24T12:01:50.712Z,81.04
2022-11-24T12:03:29.830Z,80.85
2022-11-24T12:04:40.307Z,81.15
2022-11-24T12:05:55.226Z,80.78
2022-11-24T12:07:00.053Z,79.96
2022-11-24T12:09:03.378Z,80.17
2022-11-24T12:10:05.213Z,79.57
2022-11-24T12:11:18.535Z,79.70
2022-11-24T12:12:38.459Z,79.64
2022-11-24T12:14:23.762Z,79.21
2022-11-24T12:15:37.939Z,78.40
2022-11-24T12:16:52.148Z,78.24
2022-11-24T12:18:33.012Z,78.73
2022-11-24T12:20:02.258Z,79.17
2022-11-24T12:21:12.885Z,78.38
2022-11-24T12:22:26.817Z,78.35
2022-11-24T12:23:57.180Z,78.14
2022-11-24T12:25:23.342Z,77.63
2022-11-24T12:26:44.074Z,77.48
2022-11-24T12:28:19.042Z,77.23
2022-11-24T12:29:34.542Z,76.89
2022-11-24T12:31:04.498Z,77.05
2022-11-24T12:32:27.783Z,76.61
2022-11-24T12:33:52.312Z,75.78
2022-11-24T12:35:06.606Z,74.96
2022-11-24T12:36:27.132Z,75.47
2022-11-24T12:37:54.820Z,76.15
2022-11-24T12:39:19.629Z,76.11
2022-11-24T12:41:25.499Z,74.67
2022-11-24T12:43:05.685Z,74.76
2022-11-24T12:44:27.186Z,74.68
2022-11-24T12:45:37.833Z,75.33
2022-11-24T12:47:35.029Z,75.58
2022-11-24T12:49:08.375Z,75.31
2022-11-24T12:50:14.581Z,74.96
2022-11-24T12:51:18.969Z,74.61
2022-11-24T12:52:26.747Z,73.20
2022-11-24T12:53:29.372Z,72.41
2022-11-24T12:54:40.626Z,73.06
2022-11-24T12:55:44.054Z,72.86
2022-11-24T12:56:56.743Z,72.01
2022-11-24T12:58:14.993Z,73.29
2022-11-24T12:59:31.316Z,74.90
2022-11-24T13:00:47.277Z,74.77
2022-11-24T13:02:13.663Z,74.64
2022-11-24T13:03:40.700Z,75.27
2022-11-24T13:05:08.711Z,74.80
2022-11-24T13:06:52.887Z,75.63
2022-11-24T13:07:59.283Z,75.28
2022-11-24T13:09:09.244Z,75.18
2022-11-24T13:10:54.301Z,75.04
2022-11-24T13:11:53.296Z,74.48
2022-11-24T13:13:08.108Z,74.04
2022-11-24T13:14:22.772Z,73.57
2022-11-24T13:15:45.245Z,73.99
2022-11-24T13:17:13.384Z,73.69
2022-11-24T13:18:43.118Z,73.54
2022-11-24T13:19:44.644Z,73.56
2022-11-24T13:20:46.524Z,72.57
2022-11-24T13:21:52.774Z,72.54
2022-11-24T13:22:57.113Z,72.49
2022-11-24T13:24:01.058Z,72.17
2022-11-24T13:25:30.355Z,71.99
2022-11-24T13:26:44.180Z,71.13
2022-11-24T13:27:48.574Z,70.97
2022-11-24T13:29:13.472Z,70.30
2022-11-24T13:30:35.093Z,70.39
2022-11-24T13:31:36.650Z,70.43
2022-11-24T13:32:38.082Z,70.43
2022-11-24T13:33:39.883Z,71.02
2022-11-24T13:34:45.438Z,70.96
2022-11-24T13:36:02.710Z,70.63
2022-11-24T13:37:31.681Z,70.73
2022-11-24T13:38:46.059Z,69.60
2022-11-24T13:39:51.096Z,70.63
2022-11-24T13:41:20.971Z,70.23
2022-11-24T13:42:42.922Z,69.46
2022-11-24T13:43:37.424Z,69.85
2022-11-24T13:44:49.916Z,69.83
2022-11-24T13:45:54.003Z,70.22
2022-11-24T13:47:05.302Z,70.32
2022-11-24T13:48:19.650Z,70.06
2022-11-24T13:49:21.319Z,70.56
2022-11-24T13:50:44.443Z,70.29
2022-11-24T13:51:46.085Z,70.45
2022-11-24T13:52:53.325Z,70.44
2022-11-24T13:53:56.714Z,70.25
2022-11-24T13:54:59.198Z,70.25
2022-11-24T13:56:09.792Z,70.51
2022-11-24T13:57:34.811Z,70.58
2022-11-24T13:58:39.293Z,70.68
2022-11-24T13:59:41.742Z,70.77
2022-11-24T14:01:24.835Z,70.95
2022-11-24T14:02:26.640Z,71.76
2022-11-24T14:03:39.908Z,72.29
2022-11-24T14:04:43.905Z,72.50
2022-11-24T14:05:52.118Z,72.92
2022-11-24T14:06:53.777Z,73.02
2022-11-24T14:07:55.364Z,73.45
2022-11-24T14:09:00.044Z,73.12
2022-11-24T14:10:02.226Z,73.19
2022-11-24T14:11:12.985Z,72.84
2022-11-24T14:12:25.292Z,73.50
2022-11-24T14:13:34.467Z,73.61
2022-11-24T14:14:36.278Z,73.32